Time;durP1;ratioP1;P1;durP2;ratioP2;P2;SDS_P1;SDS_P2;PMS_P1;PMS_P2;Temp;Humidity;BMP_temperature;BMP_pressure;BME280_temperature;BME280_humidity;BME280_pressure;Samples;Min_cycle;Max_cycle;Signal;HPM_P1;HPM_P2
2023/01/30 00:00:12;;;;;;;0.20;0.20;;;;;;;0.08;84.75;100695.09;5001423;28;20577;-77
2023/01/30 00:02:38;;;;;;;0.30;0.30;;;;;;;0.10;83.72;100690.84;5005162;28;20045;-77
2023/01/30 00:05:03;;;;;;;0.20;0.20;;;;;;;0.15;84.14;100685.00;5001972;28;20030;-77
2023/01/30 00:07:29;;;;;;;0.20;0.20;;;;;;;0.20;83.46;100674.81;5003699;28;20057;-77
2023/01/30 00:09:54;;;;;;;0.20;0.20;;;;;;;0.12;82.04;100668.44;5001497;28;20030;-77
2023/01/30 00:12:19;;;;;;;0.20;0.20;;;;;;;0.14;81.14;100666.81;5004034;28;20061;-77
2023/01/30 00:14:44;;;;;;;0.20;0.20;;;;;;;0.16;80.69;100665.16;5004827;28;20037;-77
2023/01/30 00:17:10;;;;;;;0.30;0.30;;;;;;;0.20;80.71;100664.44;5003459;28;20069;-77
2023/01/30 00:19:35;;;;;;;0.33;0.33;;;;;;;0.11;81.00;100670.16;5001757;28;20035;-77
2023/01/30 00:22:00;;;;;;;0.40;0.40;;;;;;;0.17;81.09;100657.41;5004587;28;20361;-77
2023/01/30 00:24:26;;;;;;;0.40;0.40;;;;;;;0.20;80.93;100651.44;5003772;28;20496;-77
2023/01/30 00:26:51;;;;;;;0.40;0.40;;;;;;;0.18;80.67;100637.53;5004853;28;20038;-77
2023/01/30 00:29:16;;;;;;;0.30;0.30;;;;;;;0.22;81.40;100634.22;5009854;28;20042;-77
2023/01/30 00:31:42;;;;;;;0.40;0.40;;;;;;;0.19;81.43;100637.59;4999975;28;20049;-77
2023/01/30 00:34:08;;;;;;;0.40;0.40;;;;;;;0.12;81.69;100619.13;5008318;28;20413;-77
2023/01/30 00:36:33;;;;;;;0.37;0.37;;;;;;;0.14;82.13;100627.88;5009924;28;20041;-77
2023/01/30 00:38:59;;;;;;;0.40;0.40;;;;;;;0.15;81.79;100642.59;5001313;28;20041;-77
2023/01/30 00:47:03;;;;;;;0.40;0.40;;;;;;;0.12;81.34;100637.31;5001120;28;20061;-77
2023/01/30 00:47:05;;;;;;;0.40;0.40;;;;;;;0.06;82.42;100642.28;5003113;28;20113;-77
2023/01/30 00:49:31;;;;;;;0.30;0.30;;;;;;;0.01;81.44;100620.47;5001095;28;20041;-77
2023/01/30 00:51:57;;;;;;;0.50;0.50;;;;;;;-0.07;82.74;100621.03;5003862;28;20046;-77
2023/01/30 00:54:22;;;;;;;0.30;0.30;;;;;;;0.02;82.25;100615.31;5003306;28;20049;-77
2023/01/30 00:56:48;;;;;;;0.30;0.30;;;;;;;0.02;82.51;100604.06;5000803;28;20176;-77
2023/01/30 00:59:13;;;;;;;0.30;0.30;;;;;;;0.01;82.49;100594.50;5002249;28;20473;-77
2023/01/30 01:01:38;;;;;;;0.40;0.40;;;;;;;0.10;82.48;100581.84;5003420;28;20026;-77
2023/01/30 01:04:05;;;;;;;0.40;0.40;;;;;;;0.03;82.77;100577.25;5002375;28;20390;-77
2023/01/30 01:06:31;;;;;;;0.50;0.50;;;;;;;0.10;82.76;100579.25;5000006;28;20030;-76
2023/01/30 01:08:56;;;;;;;0.40;0.40;;;;;;;0.17;82.29;100565.69;5001619;28;20468;-77
2023/01/30 01:11:24;;;;;;;0.40;0.40;;;;;;;0.15;81.96;100546.56;5002530;28;20034;-77
2023/01/30 01:13:57;;;;;;;0.40;0.40;;;;;;;0.14;82.61;100537.03;5003195;28;20412;-77
2023/01/30 01:16:23;;;;;;;0.37;0.37;;;;;;;0.14;82.65;100545.69;5003075;28;20038;-77
2023/01/30 01:18:49;;;;;;;0.30;0.30;;;;;;;0.14;83.15;100532.72;5007004;28;20042;-77
2023/01/30 01:21:15;;;;;;;0.30;0.30;;;;;;;0.20;83.43;100543.31;5004012;28;20029;-76
2023/01/30 01:23:40;;;;;;;0.30;0.30;;;;;;;0.21;83.10;100528.66;5014389;23;20216;-72
2023/01/30 01:26:06;;;;;;;0.30;0.30;;;;;;;0.21;83.06;100523.47;5001552;28;20049;-72
2023/01/30 01:28:33;;;;;;;0.40;0.40;;;;;;;0.16;82.90;100514.63;5008266;28;20128;-72
2023/01/30 01:30:58;;;;;;;0.40;0.40;;;;;;;0.06;83.91;100489.16;5007094;28;20560;-72
2023/01/30 01:33:27;;;;;;;0.30;0.30;;;;;;;0.15;83.84;100482.56;5006488;28;20033;-72
2023/01/30 01:35:55;;;;;;;0.40;0.40;;;;;;;0.15;83.90;100484.28;5002775;28;20508;-72
2023/01/30 01:38:21;;;;;;;0.40;0.40;;;;;;;0.15;84.59;100476.50;5004253;28;20044;-72
2023/01/30 01:41:01;;;;;;;0.30;0.30;;;;;;;0.10;84.56;100459.88;5001618;28;20038;-72
2023/01/30 01:43:31;;;;;;;0.40;0.40;;;;;;;0.15;84.94;100445.34;5002781;28;20026;-72
2023/01/30 01:46:08;;;;;;;0.37;0.37;;;;;;;0.06;85.20;100442.47;4999163;28;20034;-72
2023/01/30 01:48:37;;;;;;;0.40;0.40;;;;;;;0.04;85.32;100431.13;5005998;28;20044;-72
2023/01/30 01:51:16;;;;;;;0.30;0.30;;;;;;;-0.07;86.24;100421.28;5001937;28;20042;-72
2023/01/30 01:53:50;;;;;;;0.40;0.40;;;;;;;-0.11;86.87;100416.78;5006870;28;20068;-72
2023/01/30 01:56:17;;;;;;;0.33;0.33;;;;;;;-0.16;87.11;100422.66;5000869;28;20038;-73
2023/01/30 01:58:51;;;;;;;0.30;0.30;;;;;;;-0.12;87.44;100427.13;5000181;28;20382;-72
2023/01/30 02:01:17;;;;;;;0.30;0.30;;;;;;;-0.09;87.39;100409.94;5001247;28;20034;-72
2023/01/30 02:03:49;;;;;;;0.30;0.30;;;;;;;-0.07;87.79;100413.50;5005998;28;20432;-72
2023/01/30 02:06:16;;;;;;;0.33;0.33;;;;;;;-0.07;87.12;100390.13;4999456;28;20112;-72
2023/01/30 02:08:48;;;;;;;0.40;0.40;;;;;;;-0.09;87.30;100394.38;5000949;28;20037;-72
2023/01/30 02:11:25;;;;;;;0.30;0.30;;;;;;;-0.14;88.13;100395.94;5003216;28;20386;-72
2023/01/30 02:13:51;;;;;;;0.30;0.30;;;;;;;-0.16;88.31;100382.03;5007097;28;20034;-72
2023/01/30 02:16:19;;;;;;;0.40;0.40;;;;;;;-0.17;88.60;100385.47;5004929;28;20049;-72
2023/01/30 02:18:45;;;;;;;0.30;0.30;;;;;;;-0.12;89.03;100396.88;5008566;28;20521;-72
2023/01/30 02:21:14;;;;;;;0.30;0.30;;;;;;;-0.07;88.61;100413.50;5006178;28;20392;-72
2023/01/30 02:23:52;;;;;;;0.40;0.40;;;;;;;0.03;89.05;100422.47;5004986;28;20064;-72
2023/01/30 02:26:39;;;;;;;0.37;0.37;;;;;;;0.03;88.65;100414.69;5008642;28;20066;-72
2023/01/30 02:29:31;;;;;;;0.30;0.30;;;;;;;0.11;88.74;100386.41;5011715;28;20492;-72
2023/01/30 02:32:13;;;;;;;0.30;0.30;;;;;;;0.11;88.71;100386.41;5000733;28;20027;-72
2023/01/30 02:34:56;;;;;;;0.40;0.40;;;;;;;0.13;89.06;100384.72;5021243;28;20103;-72
2023/01/30 02:37:42;;;;;;;0.30;0.30;;;;;;;0.17;89.52;100376.22;5002920;28;20042;-72
2023/01/30 02:40:37;;;;;;;0.37;0.37;;;;;;;0.15;89.60;100375.28;5018815;28;20046;-73
2023/01/30 02:43:12;;;;;;;0.30;0.30;;;;;;;0.15;89.70;100352.81;5003110;28;20045;-72
2023/01/30 02:46:01;;;;;;;0.30;0.30;;;;;;;0.15;89.68;100341.56;5010698;28;20037;-73
2023/01/30 02:48:33;;;;;;;0.30;0.30;;;;;;;0.10;90.24;100343.13;5021703;28;20034;-72
2023/01/30 02:51:06;;;;;;;0.20;0.20;;;;;;;0.14;90.57;100345.00;5004723;28;20049;-72
2023/01/30 02:53:33;;;;;;;0.30;0.30;;;;;;;0.15;90.89;100326.84;5020572;28;20034;-72
2023/01/30 02:55:59;;;;;;;0.30;0.30;;;;;;;0.19;91.41;100322.66;5011107;28;20053;-73
2023/01/30 02:58:30;;;;;;;0.30;0.30;;;;;;;0.21;91.71;100308.91;5007477;28;20030;-73
2023/01/30 03:01:28;;;;;;;0.30;0.30;;;;;;;0.23;91.35;100288.16;5002525;28;20071;-73
2023/01/30 03:04:02;;;;;;;0.30;0.30;;;;;;;0.22;91.99;100286.41;5007084;28;20467;-72
2023/01/30 03:06:46;;;;;;;0.20;0.20;;;;;;;0.24;92.42;100304.63;5003388;28;20065;-72
2023/01/30 03:09:40;;;;;;;0.30;0.30;;;;;;;0.25;92.76;100276.13;5008153;28;20029;-72
2023/01/30 03:12:31;;;;;;;0.30;0.30;;;;;;;0.29;92.40;100261.53;5009470;28;20041;-72
2023/01/30 03:15:00;;;;;;;0.30;0.30;;;;;;;0.34;92.91;100247.88;5008845;28;20038;-72
2023/01/30 03:17:27;;;;;;;0.30;0.30;;;;;;;0.42;92.96;100250.72;5006145;28;20522;-72
2023/01/30 03:19:54;;;;;;;0.30;0.30;;;;;;;0.50;93.00;100241.44;5002774;28;20173;-72
2023/01/30 03:22:20;;;;;;;0.20;0.20;;;;;;;0.56;93.03;100246.78;5003897;28;20041;-72
2023/01/30 03:24:46;;;;;;;0.30;0.30;;;;;;;0.58;92.93;100239.06;5005499;28;20484;-72
2023/01/30 03:27:12;;;;;;;0.27;0.27;;;;;;;0.66;92.50;100237.56;5000283;28;20037;-72
2023/01/30 03:29:38;;;;;;;0.30;0.30;;;;;;;0.73;92.68;100229.09;5004396;28;20405;-72
2023/01/30 03:32:04;;;;;;;0.30;0.30;;;;;;;0.79;92.51;100225.81;5002841;28;20121;-72
2023/01/30 03:34:30;;;;;;;0.30;0.30;;;;;;;0.87;92.89;100229.50;5004036;28;20638;-72
2023/01/30 03:36:55;;;;;;;0.30;0.30;;;;;;;0.88;92.30;100234.72;5004562;28;20061;-72
2023/01/30 03:39:25;;;;;;;0.30;0.30;;;;;;;0.94;92.07;100225.34;4999564;28;20066;-73
2023/01/30 03:41:52;;;;;;;0.30;0.30;;;;;;;0.99;92.26;100226.34;5003016;28;20108;-72
2023/01/30 03:44:17;;;;;;;0.30;0.30;;;;;;;1.01;92.22;100222.94;5001701;28;20034;-72
2023/01/30 03:46:43;;;;;;;0.30;0.30;;;;;;;0.98;92.04;100214.19;5004519;28;20085;-73
2023/01/30 03:49:08;;;;;;;0.28;0.28;;;;;;;1.07;92.11;100211.84;5002637;28;20057;-72
2023/01/30 03:51:33;;;;;;;0.30;0.30;;;;;;;1.10;92.24;100185.91;5002214;28;20485;-72
2023/01/30 03:53:59;;;;;;;0.30;0.30;;;;;;;1.20;91.70;100185.31;5009984;28;20034;-72
2023/01/30 03:56:25;;;;;;;0.30;0.30;;;;;;;1.26;91.56;100169.91;5001853;28;20038;-72
2023/01/30 03:58:50;;;;;;;0.25;0.25;;;;;;;1.34;91.12;100177.00;5001830;28;20029;-72
2023/01/30 04:01:20;;;;;;;0.30;0.30;;;;;;;1.33;90.96;100190.84;5000333;28;20029;-72
2023/01/30 04:03:45;;;;;;;0.20;0.20;;;;;;;1.32;91.14;100171.78;5001622;28;20042;-72
2023/01/30 04:06:11;;;;;;;0.30;0.30;;;;;;;1.38;91.13;100168.44;5000523;28;20038;-72
2023/01/30 04:08:37;;;;;;;0.20;0.20;;;;;;;1.41;90.66;100161.59;5001795;28;20037;-72
2023/01/30 04:11:04;;;;;;;0.20;0.20;;;;;;;1.44;91.22;100173.78;5003240;28;20037;-72
2023/01/30 04:13:29;;;;;;;0.20;0.20;;;;;;;1.45;90.87;100159.97;5004268;28;20034;-72
2023/01/30 04:16:19;;;;;;;0.30;0.30;;;;;;;1.44;90.72;100173.78;5001481;28;20034;-73
2023/01/30 04:19:07;;;;;;;0.20;0.20;;;;;;;1.48;90.89;100154.84;4999959;28;20449;-72
2023/01/30 04:21:33;;;;;;;0.20;0.20;;;;;;;1.48;90.87;100149.63;5013201;28;20033;-71
2023/01/30 04:23:58;;;;;;;0.20;0.20;;;;;;;1.50;91.13;100127.16;5001866;28;20064;-72
2023/01/30 04:26:24;;;;;;;0.28;0.28;;;;;;;1.58;90.96;100143.81;5004699;28;20162;-72
2023/01/30 04:28:50;;;;;;;0.20;0.20;;;;;;;1.52;91.06;100130.69;5001138;28;20488;-72
2023/01/30 04:31:16;;;;;;;0.20;0.20;;;;;;;1.62;90.57;100142.16;5001247;28;20026;-72
2023/01/30 04:33:56;;;;;;;0.20;0.20;;;;;;;1.60;90.45;100143.81;5006020;28;20107;-72
2023/01/30 04:36:22;;;;;;;0.20;0.20;;;;;;;1.59;90.82;100129.06;4998572;28;20526;-72
2023/01/30 04:38:48;;;;;;;0.20;0.20;;;;;;;1.55;91.78;100125.53;5001767;28;20026;-72
2023/01/30 04:41:15;;;;;;;0.20;0.20;;;;;;;1.57;92.05;100113.41;5009726;28;20025;-72
2023/01/30 04:43:41;;;;;;;0.20;0.20;;;;;;;1.52;92.86;100105.53;5002523;28;20121;-73
2023/01/30 04:46:17;;;;;;;0.20;0.20;;;;;;;1.60;94.10;100099.59;5001150;28;20046;-73
2023/01/30 04:48:43;;;;;;;0.20;0.20;;;;;;;1.60;95.45;100095.31;5005729;28;20412;-72
2023/01/30 04:51:10;;;;;;;0.20;0.20;;;;;;;1.46;97.34;100099.31;5009956;28;20037;-72
2023/01/30 04:53:37;;;;;;;0.40;0.40;;;;;;;1.37;98.64;100089.56;5006053;28;20058;-72
2023/01/30 04:56:02;;;;;;;0.50;0.50;;;;;;;1.36;99.75;100085.19;4999759;28;20472;-72
2023/01/30 04:58:28;;;;;;;0.45;0.45;;;;;;;1.37;100.00;100075.69;5002086;28;20519;-72
2023/01/30 05:00:53;;;;;;;0.50;0.50;;;;;;;1.35;100.00;100067.84;4998973;28;20065;-72
2023/01/30 05:03:19;;;;;;;0.50;0.50;;;;;;;1.35;100.00;100056.56;5003358;28;20113;-72
2023/01/30 05:05:47;;;;;;;0.50;0.50;;;;;;;1.31;100.00;100069.50;5004653;28;20488;-72
2023/01/30 05:08:14;;;;;;;0.50;0.50;;;;;;;1.35;100.00;100056.56;4999990;28;20061;-72
2023/01/30 05:10:40;;;;;;;0.60;0.60;;;;;;;1.39;100.00;100051.50;5003038;28;20069;-72
2023/01/30 05:13:06;;;;;;;0.40;0.40;;;;;;;1.39;100.00;100059.28;5003235;28;20053;-72
2023/01/30 05:15:32;;;;;;;0.50;0.50;;;;;;;1.46;100.00;100036.88;5005588;28;20096;-73
2023/01/30 05:17:58;;;;;;;0.50;0.50;;;;;;;1.55;100.00;100037.09;5004208;28;20048;-72
2023/01/30 05:20:23;;;;;;;0.60;0.60;;;;;;;1.49;100.00;100031.75;5002443;28;20116;-73
2023/01/30 05:22:49;;;;;;;0.50;0.50;;;;;;;1.46;100.00;100014.34;5003799;28;20424;-72
2023/01/30 05:25:14;;;;;;;0.40;0.40;;;;;;;1.53;100.00;100017.97;5003427;28;20069;-72
2023/01/30 05:27:39;;;;;;;0.60;0.60;;;;;;;1.54;100.00;100030.13;5001800;28;20040;-72
2023/01/30 05:30:05;;;;;;;0.47;0.47;;;;;;;1.57;100.00;100030.19;5000875;28;20062;-72
2023/01/30 05:32:30;;;;;;;0.50;0.50;;;;;;;1.58;100.00;100031.97;4998301;28;20030;-71
2023/01/30 05:34:56;;;;;;;0.50;0.50;;;;;;;1.62;100.00;100019.91;5002101;28;20041;-71
2023/01/30 05:37:23;;;;;;;0.50;0.50;;;;;;;1.67;100.00;100008.75;5005719;28;20485;-72
2023/01/30 05:39:48;;;;;;;0.40;0.40;;;;;;;1.68;100.00;100018.31;5003085;28;20066;-72
2023/01/30 05:42:14;;;;;;;0.40;0.40;;;;;;;1.63;100.00;100006.94;5001328;28;20087;-72
2023/01/30 05:44:39;;;;;;;0.50;0.50;;;;;;;1.67;100.00;100007.88;5008262;28;20469;-72
2023/01/30 05:47:05;;;;;;;0.52;0.52;;;;;;;1.63;100.00;99999.13;5008632;28;20096;-72
2023/01/30 05:49:30;;;;;;;0.40;0.40;;;;;;;1.71;100.00;99988.88;5002851;28;20041;-72
2023/01/30 05:51:56;;;;;;;0.50;0.50;;;;;;;1.75;99.45;99981.16;4998781;28;20069;-72
2023/01/30 05:54:21;;;;;;;0.60;0.60;;;;;;;1.77;99.25;99978.59;5008401;28;20048;-72
2023/01/30 05:56:49;;;;;;;0.50;0.50;;;;;;;1.84;98.70;99982.22;5012306;28;20034;-72
2023/01/30 05:59:17;;;;;;;0.50;0.50;;;;;;;1.90;98.46;99958.91;5010195;28;20374;-72
2023/01/30 06:01:42;;;;;;;0.50;0.50;;;;;;;1.89;97.95;99991.88;5007714;28;20034;-72
2023/01/30 06:04:08;;;;;;;0.43;0.43;;;;;;;1.96;97.71;99977.25;5006030;28;20093;-72
2023/01/30 06:06:33;;;;;;;0.47;0.47;;;;;;;1.95;98.44;99981.56;5005812;28;20033;-72
2023/01/30 06:08:58;;;;;;;0.43;0.43;;;;;;;2.00;97.61;99973.84;5006891;28;20435;-72
2023/01/30 06:11:24;;;;;;;0.40;0.40;;;;;;;2.02;97.23;99977.38;5002976;28;20493;-72
2023/01/30 06:13:50;;;;;;;0.50;0.50;;;;;;;2.00;97.41;99984.28;5006564;28;20444;-72
2023/01/30 06:16:16;;;;;;;0.40;0.40;;;;;;;2.05;96.86;99979.16;5006268;28;20088;-72
2023/01/30 06:18:42;;;;;;;0.50;0.50;;;;;;;2.07;97.17;99972.22;5006219;28;20041;-72
2023/01/30 06:21:08;;;;;;;0.50;0.50;;;;;;;2.05;97.68;99977.44;5006203;28;20041;-72
2023/01/30 06:23:34;;;;;;;0.45;0.45;;;;;;;2.07;97.98;99972.22;5003453;28;20112;-72
2023/01/30 06:26:00;;;;;;;0.50;0.50;;;;;;;2.00;98.46;99971.25;5005318;28;20037;-72
2023/01/30 06:28:25;;;;;;;0.40;0.40;;;;;;;2.04;99.64;99965.25;5003007;28;20042;-72
2023/01/30 06:30:52;;;;;;;0.50;0.50;;;;;;;1.93;100.00;99972.84;5005032;28;20564;-71
2023/01/30 06:33:17;;;;;;;0.50;0.50;;;;;;;1.86;100.00;99967.50;5004516;28;20524;-71
2023/01/30 06:35:43;;;;;;;0.40;0.40;;;;;;;1.80;100.00;99963.03;5003139;28;20046;-72
2023/01/30 06:38:10;;;;;;;0.40;0.40;;;;;;;1.70;100.00;99974.09;5007307;28;20404;-72
2023/01/30 06:40:40;;;;;;;0.40;0.40;;;;;;;1.64;100.00;99971.38;5003821;28;20057;-71
2023/01/30 06:43:05;;;;;;;0.40;0.40;;;;;;;1.56;100.00;99979.03;5006300;28;20087;-71
2023/01/30 06:45:30;;;;;;;0.40;0.40;;;;;;;1.49;100.00;99979.75;5003357;28;20045;-72
2023/01/30 06:47:56;;;;;;;0.40;0.40;;;;;;;1.44;100.00;99971.84;5004868;28;20042;-72
2023/01/30 06:50:27;;;;;;;0.40;0.40;;;;;;;1.48;100.00;99962.38;5003497;28;20022;-72
2023/01/30 06:52:53;;;;;;;0.40;0.40;;;;;;;1.48;100.00;99970.19;5005293;28;20060;-72
2023/01/30 06:55:22;;;;;;;0.40;0.40;;;;;;;1.56;100.00;99963.44;5012116;28;20048;-72
2023/01/30 06:57:48;;;;;;;0.45;0.45;;;;;;;1.60;100.00;99957.47;5006763;28;20095;-72
2023/01/30 07:00:18;;;;;;;0.40;0.40;;;;;;;1.61;100.00;99971.34;5006071;28;20038;-72
2023/01/30 07:02:44;;;;;;;0.40;0.40;;;;;;;1.58;100.00;99968.69;5008495;28;20113;-72
2023/01/30 07:05:10;;;;;;;0.32;0.32;;;;;;;1.58;100.00;99966.94;5009304;28;20560;-71
2023/01/30 07:07:36;;;;;;;0.38;0.38;;;;;;;1.58;100.00;99966.06;5003953;28;20038;-72
2023/01/30 07:10:04;;;;;;;0.30;0.30;;;;;;;1.57;100.00;99967.78;5002873;28;20504;-71
2023/01/30 07:12:29;;;;;;;0.40;0.40;;;;;;;1.56;100.00;99966.03;5003962;28;20036;-72
2023/01/30 07:14:54;;;;;;;0.30;0.30;;;;;;;1.50;100.00;99951.19;5010619;28;20416;-72
2023/01/30 07:17:21;;;;;;;0.40;0.40;;;;;;;1.55;100.00;99966.88;5006832;28;20492;-72
2023/01/30 07:19:46;;;;;;;0.30;0.30;;;;;;;1.56;100.00;99960.81;5003613;28;20031;-72
2023/01/30 07:22:12;;;;;;;0.30;0.30;;;;;;;1.60;100.00;99957.47;5003400;28;20038;-71
2023/01/30 07:24:38;;;;;;;0.35;0.35;;;;;;;1.59;100.00;99954.81;5005182;28;20030;-72
2023/01/30 07:27:07;;;;;;;0.32;0.32;;;;;;;1.63;100.00;99961.84;5003505;28;20042;-72
2023/01/30 07:29:34;;;;;;;0.30;0.30;;;;;;;1.56;100.00;99947.81;5017865;23;20126;-75
2023/01/30 07:31:59;;;;;;;0.30;0.30;;;;;;;1.52;100.00;99954.69;5001421;28;20039;-75
2023/01/30 07:34:24;;;;;;;0.30;0.30;;;;;;;1.48;100.00;99946.78;5004739;28;20034;-75
2023/01/30 07:36:50;;;;;;;0.30;0.30;;;;;;;1.46;100.00;99948.47;5000715;28;20043;-75
2023/01/30 07:39:15;;;;;;;0.30;0.30;;;;;;;1.43;100.00;99951.00;5004672;28;20045;-76
2023/01/30 07:41:40;;;;;;;0.40;0.40;;;;;;;1.39;100.00;99949.19;5000090;28;20030;-76
2023/01/30 07:44:08;;;;;;;0.30;0.30;;;;;;;1.34;100.00;99954.31;5003773;28;20100;-76
2023/01/30 07:46:34;;;;;;;0.30;0.30;;;;;;;1.39;100.00;99949.19;5004154;28;20113;-76
2023/01/30 07:49:04;;;;;;;0.25;0.25;;;;;;;1.45;100.00;99944.13;5005063;28;20177;-77
2023/01/30 07:51:30;;;;;;;0.30;0.30;;;;;;;1.46;100.00;99945.88;5002003;28;20386;-76
2023/01/30 07:53:55;;;;;;;0.30;0.30;;;;;;;1.57;100.00;99944.34;5003510;28;20041;-76
2023/01/30 07:56:21;;;;;;;0.30;0.30;;;;;;;1.66;100.00;99941.97;5003223;28;20041;-76
2023/01/30 07:58:46;;;;;;;0.30;0.30;;;;;;;1.73;100.00;99932.56;5003683;28;20046;-76
2023/01/30 08:01:12;;;;;;;0.30;0.30;;;;;;;1.74;100.00;99943.00;4999651;28;20038;-76
2023/01/30 08:03:37;;;;;;;0.20;0.20;;;;;;;1.74;100.00;99939.53;5002063;28;20065;-76
2023/01/30 08:06:03;;;;;;;0.30;0.30;;;;;;;1.73;100.00;99938.66;5001795;28;20034;-76
2023/01/30 08:08:28;;;;;;;0.30;0.30;;;;;;;1.78;100.00;99940.44;5002780;28;20129;-76
2023/01/30 08:10:53;;;;;;;0.30;0.30;;;;;;;1.84;100.00;99946.66;5001023;28;20035;-76
2023/01/30 08:13:19;;;;;;;0.30;0.30;;;;;;;1.87;100.00;99940.63;4999800;28;20046;-77
2023/01/30 08:15:44;;;;;;;0.30;0.30;;;;;;;1.81;100.00;99937.91;4999958;28;20030;-76
2023/01/30 08:18:09;;;;;;;0.30;0.30;;;;;;;1.93;100.00;99949.44;5004693;28;20093;-77
2023/01/30 08:20:36;;;;;;;0.22;0.22;;;;;;;1.97;100.00;99933.03;4996428;28;20054;-76
2023/01/30 08:23:01;;;;;;;0.30;0.30;;;;;;;2.00;100.00;99933.94;5001930;28;20140;-76
2023/01/30 08:25:27;;;;;;;0.20;0.20;;;;;;;2.11;100.00;99930.69;5002245;28;20504;-77
2023/01/30 08:27:52;;;;;;;0.30;0.30;;;;;;;2.13;100.00;99942.00;5006255;28;20053;-77
2023/01/30 08:30:19;;;;;;;0.30;0.30;;;;;;;2.17;100.00;99941.22;5003328;28;20030;-76
2023/01/30 08:32:44;;;;;;;0.30;0.30;;;;;;;2.16;100.00;99930.78;4999710;28;20511;-76
2023/01/30 08:35:10;;;;;;;0.30;0.30;;;;;;;2.24;100.00;99923.97;5003043;28;20136;-77
2023/01/30 08:37:37;;;;;;;0.30;0.30;;;;;;;2.25;100.00;99933.53;4996746;28;20122;-76
2023/01/30 08:40:03;;;;;;;0.30;0.30;;;;;;;2.30;100.00;99934.47;5000942;28;20088;-76
2023/01/30 08:42:28;;;;;;;0.30;0.30;;;;;;;2.28;100.00;99924.88;5002587;28;20042;-77
2023/01/30 08:44:53;;;;;;;0.30;0.30;;;;;;;2.41;100.00;99911.22;5000720;28;20090;-76
2023/01/30 08:47:18;;;;;;;0.30;0.30;;;;;;;2.43;100.00;99917.34;5003177;28;20048;-76
2023/01/30 08:49:44;;;;;;;0.30;0.30;;;;;;;2.52;100.00;99914.03;5000310;28;20117;-77
2023/01/30 08:52:09;;;;;;;0.40;0.40;;;;;;;2.60;100.00;99918.50;5001974;28;20116;-77
2023/01/30 08:54:34;;;;;;;0.43;0.43;;;;;;;2.62;100.00;99914.22;4999672;28;20113;-77
2023/01/30 08:57:00;;;;;;;0.50;0.50;;;;;;;2.72;100.00;99903.91;4999680;28;20125;-76
2023/01/30 08:59:25;;;;;;;0.40;0.40;;;;;;;2.77;100.00;99899.66;4994074;28;20138;-77
2023/01/30 09:01:50;;;;;;;0.40;0.40;;;;;;;2.86;100.00;99897.19;5000559;28;20034;-77
2023/01/30 09:04:16;;;;;;;0.50;0.50;;;;;;;3.03;100.00;99895.69;4997541;28;20089;-76
2023/01/30 09:06:41;;;;;;;0.50;0.50;;;;;;;3.23;100.00;99900.31;5001518;28;20034;-76
2023/01/30 09:09:07;;;;;;;0.50;0.50;;;;;;;3.29;100.00;99911.69;4995246;28;20097;-77
2023/01/30 09:11:32;;;;;;;0.60;0.60;;;;;;;3.38;100.00;99918.78;5005787;28;20044;-76
2023/01/30 09:13:57;;;;;;;0.50;0.50;;;;;;;3.41;100.00;99913.59;4999534;28;20042;-76
2023/01/30 09:16:23;;;;;;;0.40;0.40;;;;;;;3.47;100.00;99923.22;4998782;28;20113;-77
2023/01/30 09:18:48;;;;;;;0.40;0.40;;;;;;;3.45;100.00;99912.78;4999787;28;20045;-76
2023/01/30 09:21:13;;;;;;;0.40;0.40;;;;;;;3.49;100.00;99909.34;4997466;28;20027;-77
2023/01/30 09:23:39;;;;;;;0.40;0.40;;;;;;;3.58;100.00;99913.81;5002368;28;20042;-77
2023/01/30 09:26:05;;;;;;;0.40;0.40;;;;;;;3.58;100.00;99910.31;4999590;28;20038;-76
2023/01/30 09:28:30;;;;;;;0.40;0.40;;;;;;;3.60;100.00;99898.19;5002714;28;20664;-76
2023/01/30 09:30:57;;;;;;;0.40;0.40;;;;;;;3.56;100.00;99899.84;5000208;28;20497;-76
2023/01/30 09:33:22;;;;;;;0.45;0.45;;;;;;;3.56;100.00;99901.59;4996462;28;20031;-76
2023/01/30 09:35:48;;;;;;;0.50;0.50;;;;;;;3.53;100.00;99904.16;4999899;28;20034;-76
2023/01/30 09:38:15;;;;;;;0.40;0.40;;;;;;;3.62;100.00;99918.22;5001983;28;20038;-76
2023/01/30 09:41:23;;;;;;;0.40;0.40;;;;;;;3.71;100.00;99905.25;4998579;28;20045;-76
2023/01/30 09:44:05;;;;;;;0.32;0.32;;;;;;;3.72;100.00;99903.50;4998033;28;20058;-76
2023/01/30 09:47:02;;;;;;;0.50;0.50;;;;;;;3.76;100.00;99897.47;4998619;28;20097;-76
2023/01/30 09:49:49;;;;;;;0.47;0.47;;;;;;;3.82;100.00;99901.91;4999922;28;20034;-76
2023/01/30 09:52:50;;;;;;;0.40;0.40;;;;;;;3.92;100.00;99886.34;4997193;28;20034;-76
2023/01/30 09:55:26;;;;;;;0.40;0.40;;;;;;;4.00;100.00;99882.94;5000361;28;20038;-76
2023/01/30 09:57:52;;;;;;;0.50;0.50;;;;;;;4.10;100.00;99858.66;4998348;28;20408;-76
2023/01/30 10:00:41;;;;;;;0.40;0.40;;;;;;;4.23;100.00;99865.75;4995470;28;20129;-76
2023/01/30 10:03:18;;;;;;;0.40;0.40;;;;;;;4.33;100.00;99864.97;4987885;28;20457;-75
2023/01/30 10:05:53;;;;;;;0.40;0.40;;;;;;;4.29;100.00;99859.72;4993794;28;20049;-76
2023/01/30 10:08:47;;;;;;;0.40;0.40;;;;;;;4.39;100.00;99840.63;5000515;28;20096;-75
2023/01/30 10:11:27;;;;;;;0.40;0.40;;;;;;;4.41;100.00;99851.09;4999381;28;20068;-76
2023/01/30 10:14:11;;;;;;;0.38;0.38;;;;;;;4.36;100.00;99840.63;4998197;28;20049;-76
2023/01/30 10:17:04;;;;;;;0.38;0.38;;;;;;;4.46;100.00;99831.97;5001712;28;20044;-76
2023/01/30 10:19:46;;;;;;;0.40;0.40;;;;;;;4.43;100.00;99841.53;4966326;28;20112;-76
2023/01/30 10:22:21;;;;;;;;;;;;;;;4.56;100.00;99846.00;4982918;28;20114;-75
2023/01/30 10:25:12;;;;;;;0.30;0.30;;;;;;;4.62;100.00;99895.69;5003402;28;19920;-76
2023/01/30 10:27:45;;;;;;;0.30;0.30;;;;;;;4.56;100.00;99853.84;4999303;28;20042;-75
2023/01/30 10:30:14;;;;;;;0.30;0.30;;;;;;;4.50;100.00;99867.72;4998830;28;20081;-76
2023/01/30 10:32:52;;;;;;;0.40;0.40;;;;;;;4.52;100.00;99880.81;4999725;28;20132;-75
2023/01/30 10:35:32;;;;;;;0.30;0.30;;;;;;;4.61;100.00;99880.84;4994079;28;20065;-75
2023/01/30 10:38:24;;;;;;;0.30;0.30;;;;;;;4.60;100.00;99872.16;4991103;28;20049;-76
2023/01/30 10:41:04;;;;;;;0.30;0.30;;;;;;;4.62;100.00;99859.09;4992331;28;20030;-76
2023/01/30 10:43:42;;;;;;;0.40;0.40;;;;;;;4.84;100.00;99858.38;5002358;28;20081;-76
2023/01/30 10:46:28;;;;;;;0.40;0.40;;;;;;;5.00;99.15;99866.31;5000197;28;20042;-75
2023/01/30 10:49:01;;;;;;;0.40;0.40;;;;;;;5.15;98.04;99855.06;5003928;28;20353;-76
2023/01/30 10:51:44;;;;;;;0.40;0.40;;;;;;;5.14;97.67;99867.28;5001660;28;20061;-76
2023/01/30 10:54:21;;;;;;;0.40;0.40;;;;;;;5.25;97.04;99844.66;5000690;28;20161;-76
2023/01/30 10:57:06;;;;;;;0.40;0.40;;;;;;;5.37;97.66;99850.78;4997825;28;20070;-76
2023/01/30 10:59:50;;;;;;;0.40;0.40;;;;;;;5.45;96.86;99842.13;5002927;28;20042;-75
2023/01/30 11:02:24;;;;;;;0.40;0.40;;;;;;;5.47;96.54;99847.34;4997760;28;20045;-75
2023/01/30 11:04:59;;;;;;;0.35;0.35;;;;;;;5.49;97.08;99843.84;5003938;28;20042;-76
2023/01/30 11:07:32;;;;;;;0.30;0.30;;;;;;;5.38;97.26;99834.25;4997495;28;20046;-76
2023/01/30 11:09:58;;;;;;;0.30;0.30;;;;;;;5.37;98.14;99846.44;5002223;28;20042;-76
2023/01/30 11:12:24;;;;;;;0.40;0.40;;;;;;;5.32;96.69;99842.94;5003350;28;20049;-76
2023/01/30 11:14:57;;;;;;;0.40;0.40;;;;;;;5.23;97.65;99851.59;4998273;28;20033;-76
2023/01/30 11:17:37;;;;;;;0.30;0.30;;;;;;;5.18;97.58;99839.38;5006782;28;20569;-75
2023/01/30 11:20:11;;;;;;;0.30;0.30;;;;;;;5.16;98.11;99849.84;4993054;28;20042;-75
2023/01/30 11:22:36;;;;;;;0.40;0.40;;;;;;;5.13;98.62;99828.88;5004487;28;20501;-75
2023/01/30 11:25:13;;;;;;;0.40;0.40;;;;;;;5.28;97.19;99821.09;5000633;28;20046;-75
2023/01/30 11:27:43;;;;;;;0.30;0.30;;;;;;;5.25;97.53;99800.16;5004698;28;20064;-75
2023/01/30 11:30:12;;;;;;;0.30;0.30;;;;;;;5.20;97.89;99812.34;4997901;28;20153;-75
2023/01/30 11:32:37;;;;;;;0.30;0.30;;;;;;;5.26;98.41;99819.34;5001421;28;20048;-74
2023/01/30 11:35:05;;;;;;;0.40;0.40;;;;;;;5.33;97.19;99817.66;5003071;28;20129;-75
2023/01/30 11:37:34;;;;;;;0.40;0.40;;;;;;;5.33;96.39;99815.03;5003209;28;20404;-75
2023/01/30 11:40:20;;;;;;;0.30;0.30;;;;;;;5.34;96.45;99814.16;5002015;28;20029;-75
2023/01/30 11:42:48;;;;;;;0.30;0.30;;;;;;;5.37;96.32;99806.31;4994821;28;20034;-76
2023/01/30 11:45:16;;;;;;;0.40;0.40;;;;;;;5.36;95.88;99822.88;5003710;28;20058;-76
2023/01/30 11:47:55;;;;;;;0.38;0.38;;;;;;;5.32;96.13;99826.34;4993807;28;20026;-76